KANQ/ANQ METAR and TAF weather

Enter ICAO airport designator
Station Type Date Time Source
KANQ METAR 2018/10/16 20:35 UTC NOAA

KANQ 162035Z AUTO 25011G21KT 10SM CLR 12/M01 A3004 RMK AO2 TSNO


Station Type Date Time Source
KANQ Decoded METAR 2018/10/16 20:35 UTC NOAA

Station name not available
Oct 16, 2018 - 04:35 PM EDT / 2018.10.16 2035 UTC
Wind: from the WSW (250 degrees) at 13 MPH (11 KT) gusting to 24 MPH (21 KT):0
Visibility: 10 mile(s):0
Sky conditions: clear
Temperature: 53 F (12 C)
Dew Point: 30 F (-1 C)
Relative Humidity: 40%
Pressure (altimeter): 30.04 in. Hg (1017 hPa)
ob: KANQ 162035Z AUTO 25011G21KT 10SM CLR 12/M01 A3004 RMK AO2 TSNO
cycle: 20

Station Type Date Time Source
KANQ TAF UTC NOAA

Error!


Example: see airport list